createdAt,value
2018-03-24T00:00:17.979Z,7.61
2018-03-24T00:01:17.979Z,7.75
2018-03-24T00:02:17.988Z,7.70
2018-03-24T00:03:18.031Z,7.55
2018-03-24T00:04:18.048Z,7.62
2018-03-24T00:05:18.015Z,7.59
2018-03-24T00:06:18.015Z,7.59
2018-03-24T00:07:18.018Z,7.62
2018-03-24T00:08:18.060Z,7.72
2018-03-24T00:09:18.038Z,7.58
2018-03-24T00:10:18.084Z,7.69
2018-03-24T00:11:18.048Z,7.70
2018-03-24T00:12:18.060Z,7.67
2018-03-24T00:13:18.063Z,7.74
2018-03-24T00:14:18.109Z,7.55
2018-03-24T00:15:18.075Z,7.66
2018-03-24T00:16:18.108Z,7.69
2018-03-24T00:17:18.129Z,7.58
2018-03-24T00:18:18.107Z,7.67
2018-03-24T00:19:18.160Z,7.61
2018-03-24T00:20:18.156Z,7.66
2018-03-24T00:21:18.124Z,7.61
2018-03-24T00:22:18.123Z,7.67
2018-03-24T00:23:18.127Z,7.66
2018-03-24T00:24:18.129Z,7.64
2018-03-24T00:25:18.138Z,7.61
2018-03-24T00:26:18.181Z,7.64
2018-03-24T00:27:18.150Z,7.67
2018-03-24T00:28:18.191Z,7.50
2018-03-24T00:29:18.225Z,7.53
2018-03-24T00:30:18.173Z,7.55
2018-03-24T00:31:18.180Z,7.56
2018-03-24T00:32:18.218Z,7.51
2018-03-24T00:33:18.249Z,7.64
2018-03-24T00:34:18.198Z,7.62
2018-03-24T00:35:18.205Z,7.59
2018-03-24T00:36:18.226Z,7.53
2018-03-24T00:37:18.219Z,7.56
2018-03-24T00:38:18.222Z,7.55
2018-03-24T00:39:18.267Z,7.56
2018-03-24T00:40:18.243Z,7.59
2018-03-24T00:41:18.247Z,7.51
2018-03-24T00:42:18.273Z,7.55
2018-03-24T00:43:18.262Z,7.58
2018-03-24T00:44:18.274Z,7.51
2018-03-24T00:45:18.311Z,7.58
2018-03-24T00:46:18.268Z,7.41
2018-03-24T00:47:18.284Z,7.50
2018-03-24T00:48:18.295Z,7.37
2018-03-24T00:49:18.294Z,7.47
2018-03-24T00:50:18.328Z,7.43
2018-03-24T00:51:18.307Z,7.43
2018-03-24T00:52:18.360Z,7.47
2018-03-24T00:53:18.325Z,7.41
2018-03-24T00:54:18.325Z,7.40
2018-03-24T00:55:18.330Z,7.46
2018-03-24T00:56:18.343Z,7.47
2018-03-24T00:57:18.347Z,7.41
2018-03-24T00:58:18.402Z,7.36
2018-03-24T00:59:18.359Z,7.39
2018-03-24T01:00:18.369Z,7.39
2018-03-24T01:01:18.371Z,7.41
2018-03-24T01:02:18.376Z,7.41
2018-03-24T01:03:18.387Z,7.36
2018-03-24T01:04:18.429Z,7.37
2018-03-24T01:05:18.400Z,7.23
2018-03-24T01:06:18.407Z,7.32
2018-03-24T01:07:18.460Z,7.26
2018-03-24T01:08:18.424Z,7.32
2018-03-24T01:09:18.423Z,7.26
2018-03-24T01:10:18.434Z,7.25
2018-03-24T01:11:18.440Z,7.25
2018-03-24T01:12:18.448Z,7.32
2018-03-24T01:13:18.474Z,7.22
2018-03-24T01:14:18.458Z,7.22
2018-03-24T01:15:18.530Z,7.22
2018-03-24T01:16:18.501Z,7.22
2018-03-24T01:17:18.478Z,7.15
2018-03-24T01:18:18.507Z,7.21
2018-03-24T01:19:18.489Z,7.28
2018-03-24T01:20:18.490Z,7.26
2018-03-24T01:21:18.501Z,7.22
2018-03-24T01:22:18.604Z,7.26
2018-03-24T01:23:18.511Z,7.28
2018-03-24T01:24:18.525Z,7.29
2018-03-24T01:25:18.568Z,7.29
2018-03-24T01:26:18.525Z,7.25
2018-03-24T01:27:18.536Z,7.32
2018-03-24T01:28:18.609Z,7.28
2018-03-24T01:29:18.570Z,7.28
2018-03-24T01:30:18.562Z,7.21
2018-03-24T01:31:18.560Z,7.28
2018-03-24T01:32:18.596Z,7.29
2018-03-24T01:33:18.573Z,7.32
2018-03-24T01:34:18.605Z,7.36
2018-03-24T01:35:18.609Z,7.32
2018-03-24T01:36:18.630Z,7.32
2018-03-24T01:37:18.629Z,7.28
2018-03-24T01:38:18.610Z,7.36
2018-03-24T01:39:18.611Z,7.32
2018-03-24T01:40:18.629Z,7.26
2018-03-24T01:41:18.630Z,7.25
2018-03-24T01:42:18.632Z,7.36
2018-03-24T01:43:18.700Z,7.39
2018-03-24T01:44:18.636Z,7.32
2018-03-24T01:45:18.641Z,7.37
2018-03-24T01:46:18.667Z,7.36
2018-03-24T01:47:18.673Z,7.39
2018-03-24T01:48:18.666Z,7.44
2018-03-24T01:49:18.710Z,7.40
2018-03-24T01:50:18.675Z,7.47
2018-03-24T01:51:18.681Z,7.43
2018-03-24T01:52:18.691Z,7.55
2018-03-24T01:53:18.745Z,7.44
2018-03-24T01:54:18.705Z,7.47
2018-03-24T01:55:18.735Z,7.44
2018-03-24T01:56:18.715Z,7.55
2018-03-24T01:57:18.742Z,7.32
2018-03-24T01:58:18.731Z,7.31
2018-03-24T01:59:18.792Z,7.31
2018-03-24T02:00:18.742Z,7.36
2018-03-24T02:01:18.749Z,7.37
2018-03-24T02:02:18.756Z,7.29
2018-03-24T02:03:18.764Z,7.29
2018-03-24T02:04:18.770Z,7.33
2018-03-24T02:05:18.799Z,7.33
2018-03-24T02:06:18.818Z,7.36
2018-03-24T02:07:18.794Z,7.31
2018-03-24T02:08:18.818Z,7.31
2018-03-24T02:09:18.797Z,7.39
2018-03-24T02:10:18.806Z,7.36
2018-03-24T02:11:18.821Z,7.32
2018-03-24T02:12:18.861Z,7.29
2018-03-24T02:13:18.830Z,7.44
2018-03-24T02:14:18.830Z,7.41
2018-03-24T02:15:18.874Z,7.41
2018-03-24T02:16:18.845Z,7.39
2018-03-24T02:17:18.848Z,7.31
2018-03-24T02:18:18.931Z,7.36
2018-03-24T02:19:18.859Z,7.40
2018-03-24T02:20:18.879Z,7.44
2018-03-24T02:21:18.910Z,7.36
2018-03-24T02:22:18.910Z,7.33
2018-03-24T02:23:18.936Z,7.43
2018-03-24T02:24:18.892Z,7.36
2018-03-24T02:25:18.906Z,7.23
2018-03-24T02:26:18.907Z,7.29
2018-03-24T02:27:18.949Z,7.36
2018-03-24T02:28:18.917Z,7.36
2018-03-24T02:29:18.987Z,7.36
2018-03-24T02:30:18.930Z,7.26
2018-03-24T02:31:18.973Z,7.36
2018-03-24T02:32:18.943Z,7.37
2018-03-24T02:33:18.976Z,7.39
2018-03-24T02:34:18.958Z,7.37
2018-03-24T02:35:19.059Z,7.41
2018-03-24T02:36:18.992Z,7.43
2018-03-24T02:37:18.974Z,7.48
2018-03-24T02:38:19.006Z,7.47
2018-03-24T02:39:18.988Z,7.46
2018-03-24T02:40:19.017Z,7.46
2018-03-24T02:41:19.048Z,7.41
2018-03-24T02:42:19.034Z,7.39
2018-03-24T02:43:19.015Z,7.33
2018-03-24T02:44:19.023Z,7.32
2018-03-24T02:45:19.047Z,7.33
2018-03-24T02:46:19.036Z,7.41
2018-03-24T02:47:19.121Z,7.40
2018-03-24T02:48:19.048Z,7.39
2018-03-24T02:49:19.058Z,7.40
2018-03-24T02:50:19.059Z,7.41
2018-03-24T02:51:19.072Z,7.43
2018-03-24T02:52:19.077Z,7.40
2018-03-24T02:53:19.140Z,7.36
2018-03-24T02:54:19.099Z,7.39
2018-03-24T02:55:19.095Z,7.41
2018-03-24T02:56:19.099Z,7.40
2018-03-24T02:57:19.109Z,7.41
2018-03-24T02:58:19.166Z,7.36
2018-03-24T02:59:19.134Z,7.32
2018-03-24T03:00:19.130Z,7.37
2018-03-24T03:01:19.146Z,7.26
2018-03-24T03:02:19.140Z,7.31
2018-03-24T03:03:19.153Z,7.33
2018-03-24T03:04:19.222Z,7.21
2018-03-24T03:05:19.180Z,7.25
2018-03-24T03:06:19.165Z,7.23
2018-03-24T03:07:19.193Z,7.33
2018-03-24T03:08:19.182Z,7.25
2018-03-24T03:09:19.190Z,7.19
2018-03-24T03:10:19.209Z,7.15
2018-03-24T03:11:19.197Z,7.23
2018-03-24T03:12:19.260Z,7.22
2018-03-24T03:13:19.212Z,7.28
2018-03-24T03:14:19.219Z,7.23
2018-03-24T03:15:19.235Z,7.21
2018-03-24T03:16:19.235Z,7.22
2018-03-24T03:17:19.341Z,7.08
2018-03-24T03:18:19.284Z,7.04
2018-03-24T03:19:19.267Z,7.01
2018-03-24T03:20:19.257Z,7.05
2018-03-24T03:21:19.255Z,6.96
2018-03-24T03:22:19.325Z,7.10
2018-03-24T03:23:19.317Z,7.07
2018-03-24T03:24:19.289Z,7.03
2018-03-24T03:25:19.294Z,7.03
2018-03-24T03:26:19.312Z,7.08
2018-03-24T03:27:19.293Z,7.01
2018-03-24T03:28:19.314Z,7.03
2018-03-24T03:29:19.356Z,7.00
2018-03-24T03:30:19.328Z,7.03
2018-03-24T03:31:19.392Z,7.01
2018-03-24T03:32:19.336Z,7.00
2018-03-24T03:33:19.402Z,7.00
2018-03-24T03:34:19.335Z,6.95
2018-03-24T03:35:19.396Z,7.08
2018-03-24T03:36:19.347Z,6.95
2018-03-24T03:37:19.494Z,7.00
2018-03-24T03:38:19.369Z,6.96
2018-03-24T03:39:19.383Z,6.97
2018-03-24T03:40:19.374Z,7.05
2018-03-24T03:41:19.461Z,7.01
2018-03-24T03:42:19.401Z,7.04
2018-03-24T03:43:19.406Z,6.96
2018-03-24T03:44:19.421Z,7.03
2018-03-24T03:45:19.401Z,7.05
2018-03-24T03:46:19.413Z,6.96
2018-03-24T03:47:19.470Z,7.04
2018-03-24T03:48:19.427Z,7.01
2018-03-24T03:49:19.435Z,6.92
2018-03-24T03:50:19.433Z,6.89
2018-03-24T03:51:19.447Z,6.92
2018-03-24T03:52:19.496Z,6.89
2018-03-24T03:53:19.503Z,6.96
2018-03-24T03:54:19.474Z,7.03
2018-03-24T03:55:19.493Z,6.89
2018-03-24T03:56:19.500Z,6.92
2018-03-24T03:57:19.493Z,6.96
2018-03-24T03:58:19.495Z,6.93
2018-03-24T03:59:19.540Z,7.00
2018-03-24T04:00:19.520Z,6.95
2018-03-24T04:01:19.510Z,7.05
2018-03-24T04:02:19.526Z,6.92
2018-03-24T04:03:19.523Z,6.93
2018-03-24T04:04:19.526Z,6.90
2018-03-24T04:05:19.601Z,6.95
2018-03-24T04:06:19.544Z,6.86
2018-03-24T04:07:19.561Z,6.92
2018-03-24T04:08:19.562Z,6.95
2018-03-24T04:09:19.573Z,6.95
2018-03-24T04:10:19.582Z,6.86
2018-03-24T04:11:19.618Z,6.90
2018-03-24T04:12:19.585Z,6.97
2018-03-24T04:13:19.583Z,6.93
2018-03-24T04:14:19.594Z,6.78
2018-03-24T04:15:19.614Z,6.77
2018-03-24T04:16:19.608Z,6.83
2018-03-24T04:17:19.640Z,6.87
2018-03-24T04:18:19.637Z,6.89
2018-03-24T04:19:19.630Z,7.00
2018-03-24T04:20:19.657Z,6.89
2018-03-24T04:21:19.627Z,6.97
2018-03-24T04:22:19.644Z,7.00
2018-03-24T04:23:19.706Z,6.86
2018-03-24T04:24:19.659Z,6.92
2018-03-24T04:25:19.651Z,6.92
2018-03-24T04:26:19.689Z,6.87
2018-03-24T04:27:19.692Z,6.92
2018-03-24T04:28:19.693Z,6.78
2018-03-24T04:29:19.731Z,6.92
2018-03-24T04:30:19.683Z,6.87
2018-03-24T04:31:19.730Z,6.82
2018-03-24T04:32:19.698Z,6.82
2018-03-24T04:33:19.715Z,6.97
2018-03-24T04:34:19.742Z,6.92
2018-03-24T04:35:19.746Z,6.86
2018-03-24T04:36:19.730Z,6.92
2018-03-24T04:37:19.746Z,6.90
2018-03-24T04:38:19.744Z,6.85
2018-03-24T04:39:19.775Z,6.86
2018-03-24T04:40:19.753Z,6.82
2018-03-24T04:41:19.777Z,6.86
2018-03-24T04:42:19.754Z,6.89
2018-03-24T04:43:19.762Z,6.78
2018-03-24T04:44:19.794Z,6.78
2018-03-24T04:45:19.774Z,6.75
2018-03-24T04:46:19.818Z,6.77
2018-03-24T04:47:19.788Z,6.74
2018-03-24T04:48:19.814Z,6.75
2018-03-24T04:49:22.650Z,6.70
2018-03-24T04:50:19.802Z,6.70
2018-03-24T04:51:19.821Z,6.72
2018-03-24T04:52:19.863Z,6.74
2018-03-24T04:53:19.826Z,6.75
2018-03-24T04:54:19.831Z,6.78
2018-03-24T04:55:19.838Z,6.86
2018-03-24T04:56:19.883Z,6.74
2018-03-24T04:57:19.852Z,6.85
2018-03-24T04:58:19.852Z,6.74
2018-03-24T04:59:19.868Z,6.80
2018-03-24T05:00:19.879Z,6.78
2018-03-24T05:01:19.889Z,6.82
2018-03-24T05:02:19.930Z,6.74
2018-03-24T05:03:19.890Z,6.85
2018-03-24T05:04:19.888Z,6.85
2018-03-24T05:05:19.923Z,6.87
2018-03-24T05:06:19.970Z,6.80
2018-03-24T05:07:19.909Z,6.77
2018-03-24T05:08:19.912Z,6.86
2018-03-24T05:09:19.917Z,6.83
2018-03-24T05:10:19.929Z,6.92
2018-03-24T05:11:19.931Z,6.85
2018-03-24T05:12:19.992Z,6.89
2018-03-24T05:13:19.948Z,6.87
2018-03-24T05:14:19.964Z,6.82
2018-03-24T05:15:19.962Z,6.82
2018-03-24T05:16:19.967Z,6.89
2018-03-24T05:17:20.036Z,6.90
2018-03-24T05:18:19.980Z,6.86
2018-03-24T05:19:19.983Z,6.85
2018-03-24T05:20:19.995Z,6.95
2018-03-24T05:21:19.999Z,6.89
2018-03-24T05:22:20.009Z,6.96
2018-03-24T05:23:20.060Z,7.03
2018-03-24T05:24:20.021Z,6.96
2018-03-24T05:25:20.027Z,6.92
2018-03-24T05:26:20.043Z,6.97
2018-03-24T05:27:20.039Z,6.97
2018-03-24T05:28:20.046Z,6.89
2018-03-24T05:29:20.088Z,6.92
2018-03-24T05:30:20.053Z,6.78
2018-03-24T05:31:20.067Z,6.85
2018-03-24T05:32:20.075Z,6.96
2018-03-24T05:33:20.072Z,7.00
2018-03-24T05:34:20.088Z,6.93
2018-03-24T05:35:20.196Z,6.83
2018-03-24T05:36:20.091Z,6.87
2018-03-24T05:37:20.108Z,6.85
2018-03-24T05:38:20.105Z,6.90
2018-03-24T05:39:20.126Z,6.80
2018-03-24T05:40:20.114Z,6.78
2018-03-24T05:41:20.163Z,6.96
2018-03-24T05:42:20.205Z,6.87
2018-03-24T05:43:20.129Z,6.96
2018-03-24T05:44:20.157Z,6.83
2018-03-24T05:45:20.159Z,6.95
2018-03-24T05:46:20.151Z,6.87
2018-03-24T05:47:20.191Z,6.83
2018-03-24T05:48:20.153Z,6.80
2018-03-24T05:49:20.189Z,6.92
2018-03-24T05:50:20.190Z,6.92
2018-03-24T05:51:20.216Z,6.89
2018-03-24T05:52:20.184Z,6.75
2018-03-24T05:53:20.185Z,6.82
2018-03-24T05:54:20.198Z,6.87
2018-03-24T05:55:20.303Z,6.89
2018-03-24T05:56:20.224Z,6.82
2018-03-24T05:57:20.239Z,6.83
2018-03-24T05:58:20.216Z,6.87
2018-03-24T05:59:20.307Z,6.78
2018-03-24T06:00:20.244Z,6.77
2018-03-24T06:01:20.238Z,6.75
2018-03-24T06:02:20.244Z,6.78
2018-03-24T06:03:20.276Z,6.78
2018-03-24T06:04:20.261Z,6.86
2018-03-24T06:05:20.294Z,6.90
2018-03-24T06:06:20.279Z,6.87
2018-03-24T06:07:20.274Z,6.95
2018-03-24T06:08:20.306Z,6.75
2018-03-24T06:09:20.329Z,6.89
2018-03-24T06:10:20.293Z,6.86
2018-03-24T06:11:20.318Z,6.77
2018-03-24T06:12:20.309Z,6.72
2018-03-24T06:13:20.314Z,6.77
2018-03-24T06:14:20.333Z,6.78
2018-03-24T06:15:20.367Z,6.68
2018-03-24T06:16:20.335Z,6.77
2018-03-24T06:17:20.340Z,6.75
2018-03-24T06:18:20.348Z,6.74
2018-03-24T06:19:20.422Z,6.75
2018-03-24T06:20:20.361Z,6.72
2018-03-24T06:21:20.503Z,6.74
2018-03-24T06:22:20.418Z,6.86
2018-03-24T06:23:20.382Z,6.77
2018-03-24T06:24:20.386Z,6.93
2018-03-24T06:25:20.394Z,6.87
2018-03-24T06:26:20.414Z,6.83
2018-03-24T06:27:20.464Z,6.80
2018-03-24T06:28:20.425Z,6.89
2018-03-24T06:29:20.417Z,6.90
2018-03-24T06:30:20.422Z,6.83
2018-03-24T06:31:20.428Z,6.78
2018-03-24T06:32:20.480Z,6.87
2018-03-24T06:33:20.478Z,6.86
2018-03-24T06:34:20.450Z,6.93
2018-03-24T06:35:20.457Z,6.93
2018-03-24T06:36:20.460Z,7.04
2018-03-24T06:37:20.472Z,6.93
2018-03-24T06:38:20.472Z,6.90
2018-03-24T06:39:20.519Z,6.92
2018-03-24T06:40:20.490Z,6.93
2018-03-24T06:41:20.661Z,6.85
2018-03-24T06:42:20.519Z,6.83
2018-03-24T06:43:20.502Z,6.89
2018-03-24T06:44:20.509Z,6.87
2018-03-24T06:45:20.555Z,7.00
2018-03-24T06:46:20.547Z,6.92
2018-03-24T06:47:20.529Z,6.92
2018-03-24T06:48:20.537Z,6.93
2018-03-24T06:49:20.540Z,6.93
2018-03-24T06:50:20.540Z,6.97
2018-03-24T06:51:20.609Z,7.04
2018-03-24T06:52:20.556Z,7.03
2018-03-24T06:53:20.592Z,6.92
2018-03-24T06:54:20.569Z,6.93
2018-03-24T06:55:20.616Z,6.96
2018-03-24T06:56:20.580Z,6.89
2018-03-24T06:57:20.685Z,6.90
2018-03-24T06:58:20.595Z,6.93
2018-03-24T06:59:20.607Z,7.03
2018-03-24T07:00:20.629Z,6.96
2018-03-24T07:01:20.615Z,7.03
2018-03-24T07:02:20.667Z,6.96
2018-03-24T07:03:20.631Z,6.95
2018-03-24T07:04:20.664Z,7.03
2018-03-24T07:05:20.648Z,7.03
2018-03-24T07:06:20.656Z,7.04
2018-03-24T07:07:20.663Z,7.10
2018-03-24T07:08:20.697Z,7.14
2018-03-24T07:09:20.665Z,7.01
2018-03-24T07:10:20.675Z,7.05
2018-03-24T07:11:20.694Z,6.97
2018-03-24T07:12:20.693Z,7.11
2018-03-24T07:13:20.724Z,7.11
2018-03-24T07:14:20.732Z,7.04
2018-03-24T07:15:20.694Z,7.00
2018-03-24T07:16:20.707Z,7.07
2018-03-24T07:17:20.769Z,7.11
2018-03-24T07:18:20.741Z,7.03
2018-03-24T07:19:20.731Z,7.08
2018-03-24T07:20:20.751Z,7.07
2018-03-24T07:21:20.740Z,7.14
2018-03-24T07:22:20.755Z,7.04
2018-03-24T07:23:20.796Z,7.03
2018-03-24T07:24:20.761Z,7.13
2018-03-24T07:25:20.771Z,7.13
2018-03-24T07:26:21.011Z,7.14
2018-03-24T07:27:20.831Z,7.21
2018-03-24T07:28:20.780Z,7.26
2018-03-24T07:29:20.849Z,7.33
2018-03-24T07:30:20.797Z,7.36
2018-03-24T07:31:20.801Z,7.39
2018-03-24T07:32:20.830Z,7.29
2018-03-24T07:33:20.814Z,7.46
2018-03-24T07:34:20.850Z,7.43
2018-03-24T07:35:20.885Z,7.46
2018-03-24T07:36:20.853Z,7.44
2018-03-24T07:37:20.843Z,7.44
2018-03-24T07:38:20.854Z,7.44
2018-03-24T07:39:20.903Z,7.47
2018-03-24T07:40:20.860Z,7.55
2018-03-24T07:41:20.896Z,7.58
2018-03-24T07:42:20.883Z,7.55
2018-03-24T07:43:20.903Z,7.64
2018-03-24T07:44:21.077Z,7.66
2018-03-24T07:45:20.901Z,7.69
2018-03-24T07:46:20.922Z,7.75
2018-03-24T07:47:20.953Z,7.75
2018-03-24T07:48:20.930Z,7.72
2018-03-24T07:49:20.920Z,7.75
2018-03-24T07:50:20.935Z,7.75
2018-03-24T07:51:20.978Z,7.62
2018-03-24T07:52:20.954Z,7.67
2018-03-24T07:53:20.988Z,7.61
2018-03-24T07:54:20.973Z,7.70
2018-03-24T07:55:20.960Z,7.72
2018-03-24T07:56:20.982Z,7.77
2018-03-24T07:57:20.992Z,7.75
2018-03-24T07:58:20.992Z,7.84
2018-03-24T07:59:21.041Z,7.88
2018-03-24T08:00:21.019Z,7.85
2018-03-24T08:01:21.040Z,7.91
2018-03-24T08:02:21.016Z,7.91
2018-03-24T08:03:21.069Z,8.02
2018-03-24T08:04:21.024Z,8.01
2018-03-24T08:05:21.081Z,8.01
2018-03-24T08:06:21.052Z,7.99
2018-03-24T08:07:21.048Z,8.01
2018-03-24T08:08:21.140Z,8.01
2018-03-24T08:09:21.066Z,7.99
2018-03-24T08:10:21.072Z,8.01
2018-03-24T08:11:21.112Z,8.03
2018-03-24T08:12:21.129Z,8.17
2018-03-24T08:13:21.104Z,8.14
2018-03-24T08:14:21.144Z,8.24
2018-03-24T08:15:21.108Z,8.08
2018-03-24T08:16:21.125Z,8.05
2018-03-24T08:17:21.147Z,8.08
2018-03-24T08:18:21.160Z,8.21
2018-03-24T08:19:21.145Z,8.23
2018-03-24T08:20:21.127Z,8.16
2018-03-24T08:21:21.129Z,8.18
2018-03-24T08:22:21.142Z,8.18
2018-03-24T08:23:21.197Z,8.26
2018-03-24T08:24:21.150Z,8.20
2018-03-24T08:25:21.180Z,8.32
2018-03-24T08:26:21.176Z,8.28
2018-03-24T08:27:21.172Z,8.23
2018-03-24T08:28:21.175Z,8.26
2018-03-24T08:29:21.219Z,8.39
2018-03-24T08:30:21.220Z,8.36
2018-03-24T08:31:21.215Z,8.36
2018-03-24T08:32:21.208Z,8.42
2018-03-24T08:33:21.288Z,8.39
2018-03-24T08:34:21.219Z,8.36
2018-03-24T08:35:21.270Z,8.38
2018-03-24T08:36:21.238Z,8.34
2018-03-24T08:37:21.244Z,8.46
2018-03-24T08:38:21.253Z,8.45
2018-03-24T08:39:21.257Z,8.59
2018-03-24T08:40:21.312Z,8.59
2018-03-24T08:41:21.277Z,8.52
2018-03-24T08:42:21.335Z,8.52
2018-03-24T08:43:21.360Z,8.44
2018-03-24T08:44:21.331Z,8.42
2018-03-24T08:45:21.334Z,8.38
2018-03-24T08:46:21.358Z,8.46
2018-03-24T08:47:21.313Z,8.59
2018-03-24T08:48:21.362Z,8.57
2018-03-24T08:49:21.384Z,8.57
2018-03-24T08:50:21.348Z,8.56
2018-03-24T08:51:21.354Z,8.61
2018-03-24T08:52:21.401Z,8.66
2018-03-24T08:53:21.371Z,8.60
2018-03-24T08:54:21.358Z,8.69
2018-03-24T08:55:21.409Z,8.66
2018-03-24T08:56:21.386Z,8.77
2018-03-24T08:57:21.395Z,8.79
2018-03-24T08:58:21.451Z,8.78
2018-03-24T08:59:21.397Z,8.82
2018-03-24T09:00:21.513Z,8.86
2018-03-24T09:01:21.440Z,8.78
2018-03-24T09:02:21.416Z,8.81
2018-03-24T09:03:21.462Z,8.77
2018-03-24T09:04:21.480Z,8.72
2018-03-24T09:05:21.495Z,8.77
2018-03-24T09:06:21.450Z,8.78
2018-03-24T09:07:21.454Z,8.86
2018-03-24T09:08:21.456Z,8.84
2018-03-24T09:09:21.500Z,8.89
2018-03-24T09:10:21.530Z,8.93
2018-03-24T09:11:21.529Z,8.95
2018-03-24T09:12:21.492Z,9.02
2018-03-24T09:13:21.494Z,9.02
2018-03-24T09:14:21.509Z,9.00
2018-03-24T09:15:21.526Z,9.08
2018-03-24T09:16:21.544Z,9.19
2018-03-24T09:17:21.575Z,9.18
2018-03-24T09:18:21.535Z,9.19
2018-03-24T09:19:21.538Z,9.22
2018-03-24T09:20:21.573Z,9.29
2018-03-24T09:21:21.560Z,9.31
2018-03-24T09:22:21.644Z,9.29
2018-03-24T09:23:21.570Z,9.40
2018-03-24T09:24:21.575Z,9.39
2018-03-24T09:25:21.583Z,9.39
2018-03-24T09:26:21.677Z,9.33
2018-03-24T09:27:21.630Z,9.44
2018-03-24T09:28:21.649Z,9.34
2018-03-24T09:29:21.615Z,9.49
2018-03-24T09:30:21.666Z,9.47
2018-03-24T09:31:21.659Z,9.56
2018-03-24T09:32:21.636Z,9.58
2018-03-24T09:33:21.640Z,9.63
2018-03-24T09:34:21.720Z,9.59
2018-03-24T09:35:21.682Z,9.63
2018-03-24T09:36:21.702Z,9.63
2018-03-24T09:37:21.721Z,9.69
2018-03-24T09:38:21.692Z,9.66
2018-03-24T09:39:21.711Z,9.72
2018-03-24T09:40:21.712Z,9.58
2018-03-24T09:41:21.709Z,9.56
2018-03-24T09:42:21.806Z,9.49
2018-03-24T09:43:21.756Z,9.52
2018-03-24T09:44:21.728Z,9.54
2018-03-24T09:45:21.792Z,9.58
2018-03-24T09:46:21.751Z,9.54
2018-03-24T09:47:21.757Z,9.59
2018-03-24T09:48:21.829Z,9.70
2018-03-24T09:49:21.781Z,9.69
2018-03-24T09:50:21.793Z,9.67
2018-03-24T09:51:21.829Z,9.80
2018-03-24T09:52:21.857Z,9.74
2018-03-24T09:53:21.800Z,9.74
2018-03-24T09:54:21.814Z,9.76
2018-03-24T09:55:21.814Z,9.76
2018-03-24T09:56:21.830Z,9.87
2018-03-24T09:57:21.831Z,9.87
2018-03-24T09:58:21.882Z,9.84
2018-03-24T09:59:21.919Z,9.67
2018-03-24T10:00:22.417Z,9.74
2018-03-24T10:01:21.868Z,9.67
2018-03-24T10:02:21.885Z,9.69
2018-03-24T10:03:21.915Z,9.80
2018-03-24T10:04:21.882Z,9.73
2018-03-24T10:05:21.935Z,9.69
2018-03-24T10:06:21.978Z,9.74
2018-03-24T10:07:21.908Z,9.66
2018-03-24T10:08:21.916Z,9.73
2018-03-24T10:09:21.925Z,9.80
2018-03-24T10:10:21.970Z,9.69
2018-03-24T10:11:21.937Z,9.66
2018-03-24T10:12:21.981Z,9.67
2018-03-24T10:13:21.971Z,9.72
2018-03-24T10:14:22.026Z,9.66
2018-03-24T10:15:21.972Z,9.64
2018-03-24T10:16:21.995Z,9.72
2018-03-24T10:17:22.043Z,9.66
2018-03-24T10:18:21.992Z,9.63
2018-03-24T10:19:21.999Z,9.73
2018-03-24T10:20:22.043Z,9.72
2018-03-24T10:21:22.016Z,9.82
2018-03-24T10:22:22.032Z,9.88
2018-03-24T10:23:22.110Z,9.74
2018-03-24T10:24:22.058Z,9.80
2018-03-24T10:25:22.058Z,9.74
2018-03-24T10:26:22.053Z,9.84
2018-03-24T10:27:22.067Z,9.74
2018-03-24T10:28:22.117Z,9.80
2018-03-24T10:29:22.144Z,9.82
2018-03-24T10:30:22.089Z,9.77
2018-03-24T10:31:22.097Z,9.77
2018-03-24T10:32:22.104Z,9.88
2018-03-24T10:33:22.158Z,9.92
2018-03-24T10:34:22.124Z,10.02
2018-03-24T10:35:22.153Z,9.91
2018-03-24T10:36:22.133Z,9.91
2018-03-24T10:37:22.173Z,10.02
2018-03-24T10:38:22.174Z,10.03
2018-03-24T10:39:22.211Z,9.95
2018-03-24T10:40:22.163Z,9.97
2018-03-24T10:41:22.182Z,10.09
2018-03-24T10:42:22.190Z,9.90
2018-03-24T10:43:22.192Z,10.09
2018-03-24T10:44:22.198Z,9.92
2018-03-24T10:45:22.260Z,10.02
2018-03-24T10:46:22.222Z,10.03
2018-03-24T10:47:22.365Z,10.10
2018-03-24T10:48:22.252Z,10.13
2018-03-24T10:49:22.237Z,10.12
2018-03-24T10:50:22.285Z,10.05
2018-03-24T10:51:22.290Z,10.02
2018-03-24T10:52:22.329Z,10.15
2018-03-24T10:53:22.311Z,10.18
2018-03-24T10:54:22.276Z,10.12
2018-03-24T10:55:22.329Z,10.20
2018-03-24T10:56:22.336Z,10.13
2018-03-24T10:57:22.295Z,10.10
2018-03-24T10:58:22.306Z,10.00
2018-03-24T10:59:22.329Z,9.99
2018-03-24T11:00:22.367Z,9.90
2018-03-24T11:01:22.367Z,10.06
2018-03-24T11:02:22.353Z,10.06
2018-03-24T11:03:22.357Z,10.10
2018-03-24T11:04:22.407Z,10.24
2018-03-24T11:05:22.367Z,10.27
2018-03-24T11:06:22.415Z,10.24
2018-03-24T11:07:22.414Z,10.25
2018-03-24T11:08:22.406Z,10.10
2018-03-24T11:09:22.422Z,9.95
2018-03-24T11:10:22.419Z,9.94
2018-03-24T11:11:22.450Z,9.92
2018-03-24T11:12:22.516Z,10.06
2018-03-24T11:13:22.462Z,10.12
2018-03-24T11:14:22.474Z,10.10
2018-03-24T11:15:22.452Z,10.13
2018-03-24T11:16:22.465Z,10.12
2018-03-24T11:17:22.464Z,10.12
2018-03-24T11:18:22.543Z,10.07
2018-03-24T11:19:22.486Z,10.15
2018-03-24T11:20:22.488Z,10.20
2018-03-24T11:21:22.500Z,10.15
2018-03-24T11:22:22.533Z,10.20
2018-03-24T11:23:22.525Z,10.20
2018-03-24T11:24:22.626Z,10.21
2018-03-24T11:25:22.527Z,10.13
2018-03-24T11:26:22.537Z,10.17
2018-03-24T11:27:22.571Z,10.05
2018-03-24T11:28:22.581Z,10.17
2018-03-24T11:29:22.647Z,10.09
2018-03-24T11:30:22.616Z,10.13
2018-03-24T11:31:22.591Z,10.06
2018-03-24T11:32:22.611Z,10.10
2018-03-24T11:33:22.600Z,10.12
2018-03-24T11:34:22.664Z,10.24
2018-03-24T11:35:22.655Z,10.25
2018-03-24T11:36:22.641Z,10.30
2018-03-24T11:37:22.685Z,10.24
2018-03-24T11:38:22.641Z,10.27
2018-03-24T11:39:22.656Z,10.25
2018-03-24T11:40:22.719Z,10.18
2018-03-24T11:41:22.658Z,10.10
2018-03-24T11:42:22.666Z,10.23
2018-03-24T11:43:22.702Z,10.27
2018-03-24T11:44:22.689Z,10.28
2018-03-24T11:45:22.688Z,10.28
2018-03-24T11:46:22.735Z,10.36
2018-03-24T11:47:22.810Z,10.41
2018-03-24T11:48:22.770Z,10.45
2018-03-24T11:49:22.827Z,10.39
2018-03-24T11:50:22.735Z,10.27
2018-03-24T11:51:22.822Z,10.31
2018-03-24T11:52:22.865Z,10.28
2018-03-24T11:53:22.758Z,10.20
2018-03-24T11:54:22.777Z,10.25
2018-03-24T11:55:22.808Z,10.24
2018-03-24T11:56:22.776Z,10.10
2018-03-24T11:57:22.791Z,10.07
2018-03-24T11:58:22.886Z,10.17
2018-03-24T11:59:22.875Z,10.10
2018-03-24T12:00:22.855Z,10.12
2018-03-24T12:01:22.842Z,10.21
2018-03-24T12:02:22.921Z,10.28
2018-03-24T12:03:22.997Z,10.23
2018-03-24T12:04:22.876Z,10.27
2018-03-24T12:05:22.868Z,10.33
2018-03-24T12:06:22.886Z,10.15
2018-03-24T12:07:22.889Z,9.97
2018-03-24T12:08:22.984Z,9.97
2018-03-24T12:09:22.973Z,10.07
2018-03-24T12:10:22.997Z,10.10
2018-03-24T12:11:23.107Z,10.12
2018-03-24T12:12:22.974Z,10.27
2018-03-24T12:13:22.929Z,10.30
2018-03-24T12:14:23.001Z,10.31
2018-03-24T12:15:22.997Z,10.39
2018-03-24T12:16:23.030Z,10.36
2018-03-24T12:17:22.954Z,10.36
2018-03-24T12:18:23.005Z,10.46
2018-03-24T12:19:23.012Z,10.46
2018-03-24T12:20:23.000Z,10.43
2018-03-24T12:21:23.012Z,10.61
2018-03-24T12:22:23.015Z,10.61
2018-03-24T12:23:23.130Z,10.61
2018-03-24T12:24:23.088Z,10.58
2018-03-24T12:25:23.105Z,10.64
2018-03-24T12:26:23.096Z,10.71
2018-03-24T12:27:23.086Z,10.71
2018-03-24T12:28:23.056Z,10.83
2018-03-24T12:29:23.046Z,10.80
2018-03-24T12:30:23.064Z,10.82
2018-03-24T12:31:23.105Z,10.98
2018-03-24T12:32:23.107Z,10.97
2018-03-24T12:33:23.178Z,11.01
2018-03-24T12:34:23.118Z,10.98
2018-03-24T12:35:23.104Z,11.12
2018-03-24T12:36:23.210Z,11.19
2018-03-24T12:37:23.159Z,11.27
2018-03-24T12:38:23.140Z,11.31
2018-03-24T12:39:23.153Z,11.30
2018-03-24T12:40:23.204Z,11.34
2018-03-24T12:41:23.181Z,11.37
2018-03-24T12:42:23.198Z,11.33
2018-03-24T12:43:23.387Z,11.38
2018-03-24T12:44:23.207Z,11.48
2018-03-24T12:45:23.282Z,11.35
2018-03-24T12:46:23.255Z,11.53
2018-03-24T12:47:23.213Z,11.52
2018-03-24T12:48:23.223Z,11.60
2018-03-24T12:49:23.391Z,11.71
2018-03-24T12:50:23.319Z,11.56
2018-03-24T12:51:23.348Z,11.67
2018-03-24T12:52:23.251Z,11.62
2018-03-24T12:53:23.275Z,11.56
2018-03-24T12:54:23.272Z,11.58
2018-03-24T12:55:23.311Z,11.62
2018-03-24T12:56:23.308Z,11.73
2018-03-24T12:57:23.336Z,11.71
2018-03-24T12:58:23.311Z,11.62
2018-03-24T12:59:23.306Z,11.60
2018-03-24T13:00:23.351Z,11.74
2018-03-24T13:01:23.392Z,11.74
2018-03-24T13:02:23.712Z,11.80
2018-03-24T13:03:23.414Z,11.81
2018-03-24T13:04:23.385Z,11.77
2018-03-24T13:05:23.386Z,11.81
2018-03-24T13:06:23.378Z,11.78
2018-03-24T13:07:23.451Z,11.85
2018-03-24T13:08:23.445Z,11.77
2018-03-24T13:09:23.402Z,11.95
2018-03-24T13:10:23.406Z,11.77
2018-03-24T13:11:23.415Z,11.96
2018-03-24T13:12:23.453Z,11.99
2018-03-24T13:13:23.472Z,11.91